Time;durP1;ratioP1;P1;durP2;ratioP2;P2;SDS_P1;SDS_P2;PMS_P1;PMS_P2;Temp;Humidity;BMP_temperature;BMP_pressure;BME280_temperature;BME280_humidity;BME280_pressure;Samples;Min_cycle;Max_cycle;Signal;HPM_P1;HPM_P2
2021/08/24 00:02:17;;;;;;;;;;;;;;;16.31;87.38;99561.13;5096214;28;19924;-71
2021/08/24 00:04:47;;;;;;;;;;;;;;;16.35;87.37;99561.88;5097343;28;19928;-70
2021/08/24 00:07:16;;;;;;;;;;;;;;;16.35;87.28;99559.31;5097709;28;19928;-71
2021/08/24 00:09:45;;;;;;;;;;;;;;;16.54;87.66;99550.25;5097158;28;19924;-71
2021/08/24 00:12:14;;;;;;;;;;;;;;;16.49;87.39;99554.63;5097497;28;19931;-71
2021/08/24 00:14:43;;;;;;;;;;;;;;;16.47;87.45;99546.13;5097259;28;19924;-70
2021/08/24 00:17:13;;;;;;;;;;;;;;;16.47;87.45;99551.25;5097458;28;19925;-71
2021/08/24 00:19:41;;;;;;;;;;;;;;;16.53;87.87;99539.09;5097081;28;19928;-71
2021/08/24 00:22:11;;;;;;;;;;;;;;;16.52;87.83;99539.13;5097700;28;20369;-71
2021/08/24 00:24:40;;;;;;;;;;;;;;;16.50;88.12;99540.88;5097052;28;20382;-71
2021/08/24 00:27:15;;;;;;;;;;;;;;;16.45;88.08;99548.75;5097090;28;19924;-71
2021/08/24 00:29:44;;;;;;;;;;;;;;;16.32;88.07;99551.66;5061637;28;19928;-72
2021/08/24 00:32:12;;;;;;;;;;;;;;;16.18;88.30;99553.75;5096735;28;19954;-71
2021/08/24 00:34:41;;;;;;;;;;;;;;;15.94;88.40;99550.06;5096855;28;20033;-71
2021/08/24 00:37:11;;;;;;;;;;;;;;;15.88;88.73;99538.16;5096848;28;19924;-71
2021/08/24 00:39:40;;;;;;;;;;;;;;;15.94;88.72;99539.75;5096733;28;19978;-71
2021/08/24 00:42:10;;;;;;;;;;;;;;;15.91;89.09;99548.41;5096982;28;19969;-72
2021/08/24 00:44:38;;;;;;;;;;;;;;;15.88;89.29;99545.91;5078780;28;19924;-72
2021/08/24 00:47:08;;;;;;;;;;;;;;;15.83;89.32;99552.06;5096594;28;19928;-71
2021/08/24 00:49:37;;;;;;;;;;;;;;;15.80;89.90;99542.69;5096553;28;19924;-72
2021/08/24 00:52:06;;;;;;;;;;;;;;;15.87;90.19;99548.53;5096675;28;20441;-72
2021/08/24 00:54:37;;;;;;;;;;;;;;;16.02;90.15;99543.84;5095526;28;19924;-71
2021/08/24 00:57:08;;;;;;;;;;;;;;;16.08;90.68;99545.41;5097048;28;20370;-72
2021/08/24 00:59:37;;;;;;;;;;;;;;;16.04;90.63;99542.09;5096406;28;19973;-72
2021/08/24 01:02:06;;;;;;;;;;;;;;;15.99;90.64;99543.91;5095988;28;20301;-72
2021/08/24 01:04:36;;;;;;;;;;;;;;;16.19;91.12;99550.31;5096599;28;20348;-72
2021/08/24 01:07:08;;;;;;;;;;;;;;;16.27;90.72;99548.38;5096212;28;19924;-72
2021/08/24 01:09:45;;;;;;;;;;;;;;;16.23;91.03;99551.91;5096506;28;19931;-72
2021/08/24 01:12:18;;;;;;;;;;;;;;;16.11;91.03;99553.06;5096075;28;20289;-72
2021/08/24 01:14:51;;;;;;;;;;;;;;;16.26;91.23;99547.53;5096175;28;19924;-72
2021/08/24 01:17:22;;;;;;;;;;;;;;;16.34;91.16;99557.63;5096297;28;20373;-73
2021/08/24 01:20:02;;;;;;;;;;;;;;;16.40;90.96;99554.88;5096025;28;20353;-72
2021/08/24 01:22:51;;;;;;;;;;;;;;;16.19;90.81;99555.44;5096040;28;19924;-73
2021/08/24 01:25:26;;;;;;;;;;;;;;;16.24;90.74;99558.75;5095910;28;19953;-72
2021/08/24 01:27:59;;;;;;;;;;;;;;;16.28;90.96;99550.91;5096133;28;20365;-72
2021/08/24 01:30:40;;;;;;;;;;;;;;;16.27;90.86;99556.94;5095803;28;19931;-72
2021/08/24 01:33:11;;;;;;;;;;;;;;;16.12;90.64;99553.91;5095704;28;19928;-72
2021/08/24 01:35:46;;;;;;;;;;;;;;;16.09;90.65;99557.41;5095685;28;19951;-72
2021/08/24 01:38:18;;;;;;;;;;;;;;;16.06;90.53;99554.91;5095988;28;19973;-72
2021/08/24 01:40:50;;;;;;;;;;;;;;;15.94;90.60;99556.06;5094876;28;19971;-72
2021/08/24 01:43:22;;;;;;;;;;;;;;;16.03;90.65;99555.81;5095269;28;19931;-72
2021/08/24 01:45:54;;;;;;;;;;;;;;;16.14;90.74;99562.44;5095506;28;19924;-72
2021/08/24 01:48:26;;;;;;;;;;;;;;;16.17;90.66;99558.06;5095785;28;19924;-73
2021/08/24 01:50:58;;;;;;;;;;;;;;;16.25;90.84;99561.28;5095419;28;19924;-72
2021/08/24 01:53:31;;;;;;;;;;;;;;;16.31;90.68;99557.72;5095195;28;19935;-72
2021/08/24 01:56:03;;;;;;;;;;;;;;;16.33;90.48;99553.34;5095660;28;19966;-72
2021/08/24 01:58:34;;;;;;;;;;;;;;;16.33;90.43;99548.22;5095243;28;20010;-72
2021/08/24 02:01:04;;;;;;;;;;;;;;;16.36;90.32;99549.00;5095530;28;19924;-72
2021/08/24 02:03:35;;;;;;;;;;;;;;;16.46;90.15;99552.16;5095173;28;19925;-72
2021/08/24 02:06:08;;;;;;;;;;;;;;;16.51;90.15;99547.72;5095717;28;19928;-72
2021/08/24 02:08:40;;;;;;;;;;;;;;;16.53;89.97;99540.84;5095758;28;20121;-72
2021/08/24 02:11:09;;;;;;;;;;;;;;;16.55;89.92;99551.94;5095351;28;20015;-72
2021/08/24 02:13:39;;;;;;;;;;;;;;;16.54;89.69;99557.97;5094789;28;19967;-72
2021/08/24 02:16:11;;;;;;;;;;;;;;;16.57;89.48;99552.75;5094945;28;19954;-71
2021/08/24 02:18:45;;;;;;;;;;;;;;;16.54;89.43;99547.66;5095407;28;19923;-71
2021/08/24 02:21:17;;;;;;;;;;;;;;;16.49;89.47;99546.91;5094788;28;19978;-71
2021/08/24 02:23:49;;;;;;;;;;;;;;;16.56;89.37;99544.16;5094803;28;19931;-71
2021/08/24 02:26:20;;;;;;;;;;;;;;;16.68;89.45;99540.41;5094832;28;20026;-72
2021/08/24 02:28:50;;;;;;;;;;;;;;;16.69;89.39;99547.25;5094704;28;19924;-73
2021/08/24 02:31:23;;;;;;;;;;;;;;;16.58;89.04;99539.81;5094628;28;19924;-73
2021/08/24 02:33:55;;;;;;;;;;;;;;;16.54;88.99;99537.38;5094550;28;19959;-71
2021/08/24 02:36:24;;;;;;;;;;;;;;;16.57;89.12;99539.88;5094948;28;19924;-71
2021/08/24 02:38:58;;;;;;;;;;;;;;;16.59;89.04;99546.66;5094391;28;20369;-72
2021/08/24 02:41:32;;;;;;;;;;;;;;;16.52;88.78;99544.28;5094474;28;19931;-73
2021/08/24 02:44:07;;;;;;;;;;;;;;;16.56;89.01;99543.31;5094469;28;19928;-72
2021/08/24 02:46:37;;;;;;;;;;;;;;;16.67;89.19;99549.91;5095070;28;20275;-72
2021/08/24 02:49:08;;;;;;;;;;;;;;;16.78;89.21;99547.00;5094196;28;19924;-71
2021/08/24 02:51:37;;;;;;;;;;;;;;;16.77;88.86;99545.31;5094760;28;19931;-72
2021/08/24 02:54:08;;;;;;;;;;;;;;;16.78;88.80;99539.25;5093938;28;19946;-71
2021/08/24 02:56:37;;;;;;;;;;;;;;;16.73;88.45;99538.53;5094601;28;19924;-72
2021/08/24 02:59:06;;;;;;;;;;;;;;;16.62;88.43;99543.16;5094818;28;20267;-71
2021/08/24 03:01:35;;;;;;;;;;;;;;;16.55;88.72;99544.22;5093951;28;19924;-71
2021/08/24 03:04:08;;;;;;;;;;;;;;;16.52;88.93;99539.13;5093469;28;20444;-72
2021/08/24 03:06:40;;;;;;;;;;;;;;;16.56;88.74;99545.88;5094110;28;20016;-71
2021/08/24 03:09:11;;;;;;;;;;;;;;;16.63;88.77;99542.25;5094516;28;19924;-71
2021/08/24 03:11:42;;;;;;;;;;;;;;;16.61;88.72;99536.31;5094180;28;19934;-71
2021/08/24 03:14:13;;;;;;;;;;;;;;;16.58;88.71;99532.06;5094969;28;19954;-72
2021/08/24 03:16:44;;;;;;;;;;;;;;;16.62;88.92;99540.59;5094400;28;19938;-72
2021/08/24 03:19:14;;;;;;;;;;;;;;;16.61;88.86;99538.88;5094678;28;19973;-72
2021/08/24 03:21:43;;;;;;;;;;;;;;;16.59;88.71;99545.81;5094335;28;19928;-72
2021/08/24 03:24:15;;;;;;;;;;;;;;;16.53;88.35;99541.66;5094310;28;20373;-72
2021/08/24 03:26:45;;;;;;;;;;;;;;;16.46;88.49;99541.88;5094415;28;20023;-71
2021/08/24 03:29:16;;;;;;;;;;;;;;;16.28;88.62;99544.91;5094315;28;19931;-72
2021/08/24 03:31:48;;;;;;;;;;;;;;;16.33;88.68;99548.22;5094032;28;19969;-71
2021/08/24 03:34:18;;;;;;;;;;;;;;;16.41;88.88;99554.00;5093909;28;19947;-72
2021/08/24 03:36:47;;;;;;;;;;;;;;;16.46;88.70;99549.59;5092973;28;19924;-72
2021/08/24 03:39:17;;;;;;;;;;;;;;;16.46;88.82;99557.31;5093816;28;19924;-72
2021/08/24 03:41:46;;;;;;;;;;;;;;;16.33;88.58;99553.34;5094179;28;19960;-72
2021/08/24 03:44:15;;;;;;;;;;;;;;;16.28;88.70;99550.06;5093701;28;19924;-71
2021/08/24 03:46:43;;;;;;;;;;;;;;;16.21;88.57;99553.69;5093713;28;19930;-71
2021/08/24 03:49:12;;;;;;;;;;;;;;;16.19;88.67;99558.03;5093938;28;20026;-71
2021/08/24 03:51:41;;;;;;;;;;;;;;;16.14;88.80;99558.16;5094032;28;19954;-72
2021/08/24 03:54:09;;;;;;;;;;;;;;;16.19;89.12;99555.44;5093589;28;19924;-72
2021/08/24 03:56:40;;;;;;;;;;;;;;;16.31;89.02;99555.13;5093622;28;20297;-71
2021/08/24 03:59:09;;;;;;;;;;;;;;;16.44;89.23;99556.50;5094045;28;20001;-72
2021/08/24 04:01:38;;;;;;;;;;;;;;;16.52;89.11;99560.59;5093560;28;20396;-73
2021/08/24 04:04:07;;;;;;;;;;;;;;;16.57;88.94;99563.06;5094469;28;19931;-72
2021/08/24 04:06:36;;;;;;;;;;;;;;;16.54;88.64;99570.84;5097507;28;19967;-71
2021/08/24 04:09:05;;;;;;;;;;;;;;;16.59;88.77;99562.13;5097333;28;19977;-72
2021/08/24 04:11:34;;;;;;;;;;;;;;;16.59;88.46;99556.13;5097525;28;20105;-71
2021/08/24 04:14:05;;;;;;;;;;;;;;;16.66;88.45;99558.50;5097801;28;20263;-72
2021/08/24 04:16:34;;;;;;;;;;;;;;;16.65;88.29;99561.13;5097254;28;20425;-72
2021/08/24 04:19:03;;;;;;;;;;;;;;;16.74;88.21;99571.19;5097373;28;20266;-72
2021/08/24 04:21:32;;;;;;;;;;;;;;;16.72;88.13;99567.81;5097653;28;20374;-71
2021/08/24 04:24:00;;;;;;;;;;;;;;;16.68;87.83;99568.75;5097876;28;20576;-71
2021/08/24 04:26:29;;;;;;;;;;;;;;;16.61;87.93;99569.81;5096997;28;19938;-72
2021/08/24 04:28:57;;;;;;;;;;;;;;;16.65;87.94;99571.44;5097166;28;19968;-72
2021/08/24 04:31:30;;;;;;;;;;;;;;;16.51;87.91;99571.78;5095895;28;20023;-72
2021/08/24 04:33:59;;;;;;;;;;;;;;;16.37;88.08;99565.25;5095542;28;19967;-71
2021/08/24 04:36:27;;;;;;;;;;;;;;;16.38;88.07;99566.97;5097467;28;19924;-71
2021/08/24 04:38:56;;;;;;;;;;;;;;;16.46;88.31;99570.19;5097043;28;19924;-71
2021/08/24 04:41:25;;;;;;;;;;;;;;;16.48;88.33;99574.44;5096708;28;20415;-72
2021/08/24 04:43:54;;;;;;;;;;;;;;;16.53;88.36;99571.75;5096772;28;20374;-72
2021/08/24 04:46:23;;;;;;;;;;;;;;;16.53;88.10;99574.34;5096598;28;19924;-71
2021/08/24 04:48:53;;;;;;;;;;;;;;;16.52;88.12;99570.06;5096887;28;19928;-71
2021/08/24 04:51:22;;;;;;;;;;;;;;;16.72;88.36;99567.81;5096649;28;19997;-71
2021/08/24 04:53:50;;;;;;;;;;;;;;;16.90;88.58;99562.13;5096404;28;20381;-71
2021/08/24 04:56:19;;;;;;;;;;;;;;;16.97;88.30;99563.63;5096382;28;19924;-72
2021/08/24 04:58:48;;;;;;;;;;;;;;;16.87;88.12;99562.19;5096369;28;19924;-71
2021/08/24 05:01:17;;;;;;;;;;;;;;;16.78;87.93;99572.78;5096297;28;19964;-72
2021/08/24 05:03:46;;;;;;;;;;;;;;;16.67;88.06;99570.50;5096062;28;19964;-71
2021/08/24 05:06:16;;;;;;;;;;;;;;;16.72;88.19;99573.78;5096528;28;19924;-70
2021/08/24 05:08:45;;;;;;;;;;;;;;;16.84;88.57;99577.78;5096222;28;20382;-72
2021/08/24 05:11:14;;;;;;;;;;;;;;;16.96;88.53;99576.59;5096151;28;20010;-71
2021/08/24 05:13:42;;;;;;;;;;;;;;;17.06;88.16;99578.84;5095970;28;19970;-71
2021/08/24 05:16:12;;;;;;;;;;;;;;;17.13;88.21;99580.34;5095616;28;19974;-71
2021/08/24 05:18:40;;;;;;;;;;;;;;;17.23;88.09;99581.78;5096391;28;20340;-71
2021/08/24 05:21:13;;;;;;;;;;;;;;;17.13;87.65;99589.84;5096280;28;20019;-71
2021/08/24 05:23:43;;;;;;;;;;;;;;;16.97;87.52;99586.84;5095931;28;19935;-71
2021/08/24 05:26:13;;;;;;;;;;;;;;;17.01;87.65;99590.19;5095782;28;19928;-71
2021/08/24 05:28:41;;;;;;;;;;;;;;;17.13;87.82;99600.97;5095801;28;20011;-70
2021/08/24 05:31:10;;;;;;;;;;;;;;;17.27;87.76;99601.47;5095758;28;19978;-70
2021/08/24 05:33:43;;;;;;;;;;;;;;;17.40;87.62;99596.75;5095982;28;19927;-71
2021/08/24 05:36:13;;;;;;;;;;;;;;;17.44;87.33;99599.19;5096238;28;19928;-71
2021/08/24 05:38:43;;;;;;;;;;;;;;;17.52;87.08;99598.16;5095933;28;19924;-71
2021/08/24 05:41:12;;;;;;;;;;;;;;;17.53;86.65;99599.88;5095642;28;19928;-71
2021/08/24 05:43:40;;;;;;;;;;;;;;;17.51;86.15;99599.03;5095452;28;19931;-70
2021/08/24 05:46:10;;;;;;;;;;;;;;;17.52;86.04;99595.56;5095355;28;20320;-71
2021/08/24 05:48:40;;;;;;;;;;;;;;;17.58;86.00;99606.59;5095705;28;20374;-71
2021/08/24 05:51:12;;;;;;;;;;;;;;;17.63;85.63;99596.13;5094700;28;19973;-71
2021/08/24 05:53:40;;;;;;;;;;;;;;;17.71;85.28;99604.44;5095385;28;20039;-71
2021/08/24 05:56:12;;;;;;;;;;;;;;;17.86;84.95;99614.31;5095128;28;19931;-71
2021/08/24 05:58:41;;;;;;;;;;;;;;;17.96;84.39;99602.81;5095251;28;19972;-70
2021/08/24 06:01:10;;;;;;;;;;;;;;;18.04;83.90;99603.41;5095197;28;19970;-70
2021/08/24 06:03:42;;;;;;;;;;;;;;;18.15;83.59;99611.66;5095720;28;19924;-71
2021/08/24 06:06:17;;;;;;;;;;;;;;;18.17;83.09;99611.59;5094996;28;19962;-71
2021/08/24 06:08:52;;;;;;;;;;;;;;;18.08;82.92;99612.75;5094998;28;19924;-71
2021/08/24 06:11:27;;;;;;;;;;;;;;;18.03;82.46;99609.47;5095013;28;19924;-71
2021/08/24 06:14:00;;;;;;;;;;;;;;;18.05;82.19;99610.25;5094970;28;19931;-71
2021/08/24 06:16:33;;;;;;;;;;;;;;;18.22;81.64;99618.31;5095199;28;19924;-70
2021/08/24 06:19:06;;;;;;;;;;;;;;;18.35;81.47;99619.59;5094743;28;19982;-71
2021/08/24 06:21:42;;;;;;;;;;;;;;;18.50;81.21;99624.28;5095092;28;19924;-70
2021/08/24 06:24:11;;;;;;;;;;;;;;;18.72;80.36;99620.06;5094740;28;20313;-70
2021/08/24 06:26:42;;;;;;;;;;;;;;;18.92;79.78;99631.44;5094644;28;19928;-70
2021/08/24 06:29:12;;;;;;;;;;;;;;;18.96;79.06;99633.03;5094506;28;19924;-71
2021/08/24 06:31:47;;;;;;;;;;;;;;;18.90;79.10;99633.25;5094812;28;20019;-71
2021/08/24 06:34:20;;;;;;;;;;;;;;;18.76;78.75;99630.31;5093336;28;19924;-71
2021/08/24 06:36:49;;;;;;;;;;;;;;;18.69;78.88;99627.91;5094374;28;19924;-70
2021/08/24 06:39:18;;;;;;;;;;;;;;;18.79;78.50;99632.81;5094509;28;20023;-70
2021/08/24 06:41:48;;;;;;;;;;;;;;;19.14;78.40;99637.56;5094812;28;19924;-71
2021/08/24 06:44:17;;;;;;;;;;;;;;;19.48;77.96;99625.09;5093120;28;19947;-70
2021/08/24 06:46:45;;;;;;;;;;;;;;;19.41;77.08;99631.41;5094202;28;20336;-70
2021/08/24 06:49:14;;;;;;;;;;;;;;;19.40;76.90;99627.13;5094389;28;20381;-71
2021/08/24 06:51:43;;;;;;;;;;;;;;;19.50;76.70;99633.66;5094253;28;19973;-70
2021/08/24 06:54:29;;;;;;;;;;;;;;;19.78;76.24;99620.47;5094202;28;20007;-70
2021/08/24 06:56:59;;;;;;;;;;;;;;;19.94;75.47;99622.41;5094573;28;19924;-70
2021/08/24 06:59:36;;;;;;;;;;;;;;;20.05;75.09;99622.84;5094272;28;19924;-71
2021/08/24 07:02:07;;;;;;;;;;;;;;;20.33;74.61;99621.72;5094059;28;19924;-71
2021/08/24 07:04:38;;;;;;;;;;;;;;;20.29;74.20;99617.59;5094088;28;19993;-70
2021/08/24 07:07:11;;;;;;;;;;;;;;;20.34;74.00;99615.66;5094059;28;19970;-70
2021/08/24 07:09:42;;;;;;;;;;;;;;;20.42;73.27;99619.59;5094422;28;19928;-71
2021/08/24 07:12:16;;;;;;;;;;;;;;;20.41;72.92;99624.84;5094252;28;19924;-71
2021/08/24 07:14:45;;;;;;;;;;;;;;;20.50;72.94;99632.25;5093568;28;19924;-71
2021/08/24 07:17:15;;;;;;;;;;;;;;;20.66;72.42;99628.09;5093788;28;19927;-70
2021/08/24 07:19:44;;;;;;;;;;;;;;;20.92;71.92;99625.25;5093901;28;19928;-71
2021/08/24 07:22:13;;;;;;;;;;;;;;;20.76;71.33;99634.56;5093837;28;20277;-71
2021/08/24 07:24:42;;;;;;;;;;;;;;;20.84;71.62;99629.06;5094110;28;19939;-71
2021/08/24 07:27:11;;;;;;;;;;;;;;;20.87;72.32;99637.56;5093742;28;20022;-71
2021/08/24 07:29:41;;;;;;;;;;;;;;;20.93;72.27;99639.88;5094011;28;19931;-71
2021/08/24 07:32:10;;;;;;;;;;;;;;;20.88;72.39;99648.75;5092488;28;19953;-71
2021/08/24 07:34:39;;;;;;;;;;;;;;;20.78;72.32;99645.72;5093808;28;19924;-71
2021/08/24 07:37:08;;;;;;;;;;;;;;;20.82;72.81;99647.31;5093543;28;19931;-71
2021/08/24 07:39:38;;;;;;;;;;;;;;;20.96;72.62;99647.53;5096584;28;20331;-71
2021/08/24 07:42:07;;;;;;;;;;;;;;;20.65;72.09;99649.75;5097885;28;19924;-71
2021/08/24 07:44:36;;;;;;;;;;;;;;;20.83;72.48;99648.16;5096648;28;20018;-71
2021/08/24 07:47:07;;;;;;;;;;;;;;;20.96;72.03;99642.34;5097681;28;19959;-71
2021/08/24 07:49:39;;;;;;;;;;;;;;;21.09;71.52;99650.50;5098054;28;19928;-71
2021/08/24 07:52:09;;;;;;;;;;;;;;;21.04;71.74;99648.03;5097529;28;19924;-71
2021/08/24 07:54:38;;;;;;;;;;;;;;;21.29;71.65;99656.47;5097368;28;19969;-71
2021/08/24 07:57:07;;;;;;;;;;;;;;;21.21;71.20;99648.16;5097211;28;19928;-71
2021/08/24 07:59:36;;;;;;;;;;;;;;;21.34;70.90;99654.50;5097285;28;19977;-70
2021/08/24 08:02:05;;;;;;;;;;;;;;;21.55;70.41;99651.84;5097148;28;19957;-71
2021/08/24 08:04:35;;;;;;;;;;;;;;;21.85;69.95;99647.88;5097173;28;20331;-71
2021/08/24 08:07:04;;;;;;;;;;;;;;;22.23;69.51;99652.06;5097116;28;19924;-71
2021/08/24 08:09:32;;;;;;;;;;;;;;;22.35;68.85;99656.69;5097247;28;20010;-71
2021/08/24 08:12:01;;;;;;;;;;;;;;;22.41;68.17;99656.34;5097227;28;20297;-71
2021/08/24 08:14:30;;;;;;;;;;;;;;;22.23;68.13;99652.06;5097163;28;20022;-70
2021/08/24 08:17:01;;;;;;;;;;;;;;;22.53;67.94;99660.97;5097092;28;19970;-71
2021/08/24 08:19:30;;;;;;;;;;;;;;;22.95;67.37;99677.97;5097273;28;19931;-72
2021/08/24 08:22:02;;;;;;;;;;;;;;;22.86;66.42;99675.84;5096868;28;19928;-72
2021/08/24 08:24:31;;;;;;;;;;;;;;;22.53;66.40;99665.34;5095591;28;20277;-72
2021/08/24 08:27:00;;;;;;;;;;;;;;;22.47;66.60;99666.47;5096999;28;19924;-72
2021/08/24 08:29:30;;;;;;;;;;;;;;;22.40;66.50;99669.44;5096591;28;19947;-72
2021/08/24 08:32:02;;;;;;;;;;;;;;;22.22;66.78;99676.38;5096974;28;19946;-71
2021/08/24 08:34:33;;;;;;;;;;;;;;;22.15;67.19;99664.59;5096696;28;20049;-71
2021/08/24 08:37:04;;;;;;;;;;;;;;;21.84;68.34;99662.59;5096647;28;20022;-72
2021/08/24 08:39:32;;;;;;;;;;;;;;;21.81;68.17;99664.50;5096717;28;20011;-71
2021/08/24 08:42:06;;;;;;;;;;;;;;;21.80;68.40;99668.00;5096594;28;20011;-71
2021/08/24 08:44:38;;;;;;;;;;;;;;;21.87;68.45;99675.47;5096551;28;19970;-72
2021/08/24 08:47:11;;;;;;;;;;;;;;;21.71;69.39;99681.41;5096450;28;19924;-74
2021/08/24 08:49:49;;;;;;;;;;;;;;;21.36;70.80;99683.00;5096249;28;20290;-74
2021/08/24 08:52:22;;;;;;;;;;;;;;;21.12;71.33;99689.25;5096479;28;19924;-74
2021/08/24 08:54:57;;;;;;;;;;;;;;;20.99;71.93;99683.75;5096390;28;20007;-74
2021/08/24 08:57:32;;;;;;;;;;;;;;;20.86;72.12;99682.56;5096264;28;19929;-74
2021/08/24 09:00:10;;;;;;;;;;;;;;;20.75;72.38;99687.38;5096416;28;19931;-75
2021/08/24 09:02:46;;;;;;;;;;;;;;;20.57;73.18;99669.97;5094811;28;19931;-74
2021/08/24 09:05:20;;;;;;;;;;;;;;;20.58;73.89;99682.91;5096252;28;19977;-74
2021/08/24 09:07:54;;;;;;;;;;;;;;;20.63;73.85;99677.53;5095965;28;19924;-74
2021/08/24 09:10:26;;;;;;;;;;;;;;;20.52;74.28;99677.94;5078172;28;20345;-74
2021/08/24 09:12:58;;;;;;;;;;;;;;;20.57;74.92;99676.00;5096149;28;19981;-74
2021/08/24 09:15:33;;;;;;;;;;;;;;;20.69;74.79;99677.25;5096369;28;19966;-74
2021/08/24 09:18:03;;;;;;;;;;;;;;;20.82;74.66;99670.66;5096020;28;20318;-73
2021/08/24 09:20:36;;;;;;;;;;;;;;;20.79;74.89;99675.09;5096129;28;19932;-73
2021/08/24 09:23:06;;;;;;;;;;;;;;;20.82;75.16;99668.06;5096217;28;20344;-73
2021/08/24 09:25:42;;;;;;;;;;;;;;;20.83;75.18;99672.31;5095870;28;20394;-73
2021/08/24 09:28:15;;;;;;;;;;;;;;;20.88;74.52;99662.59;5095749;28;19967;-73
2021/08/24 09:30:44;;;;;;;;;;;;;;;20.81;74.29;99671.53;5095873;28;19924;-73
2021/08/24 09:33:13;;;;;;;;;;;;;;;20.73;74.62;99665.00;5095475;28;19925;-73
2021/08/24 09:35:47;;;;;;;;;;;;;;;21.18;74.46;99668.25;5094416;28;20140;-73
2021/08/24 09:38:18;;;;;;;;;;;;;;;21.84;73.99;99669.53;5095274;28;19977;-73
2021/08/24 09:40:49;;;;;;;;;;;;;;;22.20;72.90;99662.63;5095401;28;19935;-73
2021/08/24 09:43:20;;;;;;;;;;;;;;;22.51;70.96;99656.75;5095674;28;20422;-73
2021/08/24 09:45:54;;;;;;;;;;;;;;;23.06;69.60;99654.84;5095235;28;19924;-73
2021/08/24 09:48:23;;;;;;;;;;;;;;;23.33;68.34;99650.75;5095325;28;19947;-73
2021/08/24 09:50:52;;;;;;;;;;;;;;;23.82;67.50;99647.22;5095303;28;20369;-73
2021/08/24 09:53:30;;;;;;;;;;;;;;;23.63;66.73;99646.56;5095884;28;19932;-73
2021/08/24 09:56:00;;;;;;;;;;;;;;;23.92;65.66;99643.16;5095280;28;19925;-72
2021/08/24 09:58:32;;;;;;;;;;;;;;;24.10;64.51;99640.47;5095444;28;19993;-72
2021/08/24 10:01:03;;;;;;;;;;;;;;;24.28;63.47;99636.84;5095221;28;19924;-73
2021/08/24 10:03:36;;;;;;;;;;;;;;;24.33;61.93;99637.44;5094344;28;19958;-72
2021/08/24 10:06:07;;;;;;;;;;;;;;;24.45;61.54;99636.72;5095149;28;19930;-72
2021/08/24 10:08:38;;;;;;;;;;;;;;;24.64;61.61;99637.31;5095079;28;19970;-73
2021/08/24 10:11:08;;;;;;;;;;;;;;;24.25;61.44;99642.22;5095051;28;19932;-72
2021/08/24 10:13:38;;;;;;;;;;;;;;;23.98;61.51;99636.78;5095319;28;19932;-72
2021/08/24 10:16:09;;;;;;;;;;;;;;;24.36;60.44;99632.00;5095544;28;19974;-72
2021/08/24 10:18:39;;;;;;;;;;;;;;;24.13;61.20;99635.09;5094834;28;19928;-72
2021/08/24 10:21:12;;;;;;;;;;;;;;;23.73;61.16;99632.06;5095129;28;19970;-72
2021/08/24 10:23:55;;;;;;;;;;;;;;;23.45;61.85;99637.13;5094830;28;19938;-72
2021/08/24 10:26:26;;;;;;;;;;;;;;;23.12;62.34;99637.13;5094786;28;20015;-72
2021/08/24 10:28:56;;;;;;;;;;;;;;;22.94;63.16;99650.28;5094689;28;19924;-72
2021/08/24 10:31:42;;;;;;;;;;;;;;;22.78;64.13;99638.94;5094651;28;19924;-72
2021/08/24 10:34:13;;;;;;;;;;;;;;;22.48;65.75;99647.31;5094463;28;19924;-72
2021/08/24 10:36:43;;;;;;;;;;;;;;;22.44;66.96;99640.59;5094498;28;19959;-72
2021/08/24 10:39:26;;;;;;;;;;;;;;;23.08;65.53;99634.78;5094928;28;19950;-71
2021/08/24 10:42:05;;;;;;;;;;;;;;;23.66;62.12;99625.53;5094453;28;19924;-72
2021/08/24 10:44:43;;;;;;;;;;;;;;;24.08;60.32;99621.47;5094660;28;19950;-71
2021/08/24 10:47:21;;;;;;;;;;;;;;;24.76;59.32;99620.94;5094697;28;20014;-71
2021/08/24 10:49:50;;;;;;;;;;;;;;;25.19;58.66;99620.00;5094590;28;19924;-71
2021/08/24 10:52:25;;;;;;;;;;;;;;;24.53;58.35;99629.25;5094341;28;19932;-71
2021/08/24 10:55:02;;;;;;;;;;;;;;;23.96;59.00;99634.25;5094230;28;20015;-72
2021/08/24 10:57:46;;;;;;;;;;;;;;;23.44;59.72;99635.44;5094219;28;19931;-72
2021/08/24 11:00:31;;;;;;;;;;;;;;;23.17;61.99;99631.66;5094242;28;19962;-71
2021/08/24 11:03:09;;;;;;;;;;;;;;;23.04;63.54;99631.47;5094071;28;19924;-71
2021/08/24 11:05:44;;;;;;;;;;;;;;;22.87;63.74;99631.50;5094018;28;20083;-71
2021/08/24 11:08:21;;;;;;;;;;;;;;;22.73;63.52;99630.53;5094387;28;19924;-71
2021/08/24 11:10:57;;;;;;;;;;;;;;;22.56;63.32;99634.78;5093990;28;19946;-71
2021/08/24 11:13:31;;;;;;;;;;;;;;;22.39;63.37;99632.19;5093704;28;19924;-72
2021/08/24 11:16:03;;;;;;;;;;;;;;;22.44;63.63;99638.00;5094067;28;19927;-72
2021/08/24 11:18:40;;;;;;;;;;;;;;;22.72;63.40;99634.06;5093893;28;20048;-73
2021/08/24 11:21:12;;;;;;;;;;;;;;;23.39;62.15;99637.47;5094006;28;19958;-72
2021/08/24 11:23:51;;;;;;;;;;;;;;;23.72;61.85;99634.78;5093624;28;19974;-71
2021/08/24 11:26:27;;;;;;;;;;;;;;;23.95;60.48;99636.94;5101175;28;19928;-73
2021/08/24 11:29:02;;;;;;;;;;;;;;;24.19;59.22;99630.38;5100299;28;19925;-71
2021/08/24 11:31:35;;;;;;;;;;;;;;;24.90;58.40;99631.41;5106800;28;20386;-71
2021/08/24 11:34:08;;;;;;;;;;;;;;;25.39;56.29;99631.03;5114125;28;19931;-71
2021/08/24 11:36:39;;;;;;;;;;;;;;;25.71;54.26;99622.88;5114151;28;19962;-72
2021/08/24 11:39:12;;;;;;;;;;;;;;;25.84;53.04;99628.19;5114057;28;19973;-71
2021/08/24 11:41:45;;;;;;;;;;;;;;;26.03;51.84;99618.19;5114047;28;19931;-71
2021/08/24 11:44:16;;;;;;;;;;;;;;;26.27;51.75;99627.09;5114048;28;19969;-71
2021/08/24 11:46:47;;;;;;;;;;;;;;;26.00;52.49;99620.16;5113984;28;20011;-72
2021/08/24 11:49:19;;;;;;;;;;;;;;;26.20;50.29;99619.75;5114030;28;19967;-71
2021/08/24 11:51:51;;;;;;;;;;;;;;;26.41;51.29;99608.69;5113934;28;19927;-72
2021/08/24 11:54:24;;;;;;;;;;;;;;;26.89;50.99;99614.19;5113872;28;19923;-71
2021/08/24 11:56:57;;;;;;;;;;;;;;;26.61;49.22;99610.81;5113871;28;20464;-73
2021/08/24 11:59:28;;;;;;;;;;;;;;;26.95;50.14;99608.53;5113810;28;20321;-72
2021/08/24 12:01:57;;;;;;;;;;;;;;;27.32;49.08;99618.13;5113716;28;19924;-73
2021/08/24 12:04:31;;;;;;;;;;;;;;;27.57;48.47;99612.84;5113927;28;19939;-72
2021/08/24 12:07:02;;;;;;;;;;;;;;;27.73;47.94;99613.44;5113822;28;19927;-71
2021/08/24 12:09:36;;;;;;;;;;;;;;;27.82;47.36;99612.78;5112717;28;19958;-72
2021/08/24 12:12:07;;;;;;;;;;;;;;;27.37;48.22;99610.78;5112468;28;19924;-72
2021/08/24 12:14:40;;;;;;;;;;;;;;;26.04;48.95;99614.63;5113889;28;19972;-72
2021/08/24 12:17:21;;;;;;;;;;;;;;;25.54;50.48;99615.25;5113801;28;19970;-72
2021/08/24 12:19:55;;;;;;;;;;;;;;;25.23;52.56;99621.53;5113647;28;20445;-71
2021/08/24 12:22:30;;;;;;;;;;;;;;;25.86;50.34;99628.91;5113717;28;19924;-70
2021/08/24 12:25:00;;;;;;;;;;;;;;;25.20;51.45;99626.09;5113731;28;19931;-71
2021/08/24 12:27:42;;;;;;;;;;;;;;;24.63;53.24;99630.41;5117508;28;19984;-70
2021/08/24 12:30:15;;;;;;;;;;;;;;;24.08;54.55;99631.91;5117163;28;20011;-70
2021/08/24 12:32:54;;;;;;;;;;;;;;;23.80;55.15;99638.63;5117425;28;20425;-70
2021/08/24 12:35:30;;;;;;;;;;;;;;;23.68;55.31;99646.31;5117321;28;20319;-71
2021/08/24 12:38:00;;;;;;;;;;;;;;;24.55;53.37;99643.06;5117069;28;19924;-69
2021/08/24 12:40:46;;;;;;;;;;;;;;;24.14;53.92;99645.44;5117103;28;19966;-70
2021/08/24 12:43:24;;;;;;;;;;;;;;;23.60;55.02;99659.75;5117190;28;20460;-70
2021/08/24 12:46:04;;;;;;;;;;;;;;;23.28;55.96;99660.59;5117097;28;20019;-70
2021/08/24 12:48:34;;;;;;;;;;;;;;;23.07;56.64;99672.13;5117169;28;19924;-69
2021/08/24 12:51:05;;;;;;;;;;;;;;;22.90;57.70;99669.53;5116922;28;19924;-70
2021/08/24 12:53:41;;;;;;;;;;;;;;;22.79;58.26;99666.66;5116856;28;19930;-69
2021/08/24 12:56:13;;;;;;;;;;;;;;;22.78;58.83;99675.38;5117158;28;20331;-70
2021/08/24 12:58:46;;;;;;;;;;;;;;;22.71;58.91;99677.44;5116969;28;19946;-70
2021/08/24 13:01:16;;;;;;;;;;;;;;;22.59;59.13;99684.09;5116166;28;20278;-70
2021/08/24 13:03:57;;;;;;;;;;;;;;;22.59;59.32;99686.69;5116780;28;20330;-70
2021/08/24 13:06:29;;;;;;;;;;;;;;;22.57;59.31;99682.47;5116553;28;19930;-70
2021/08/24 13:09:13;;;;;;;;;;;;;;;22.49;59.48;99688.06;5115410;28;19923;-70
2021/08/24 13:11:43;;;;;;;;;;;;;;;22.47;59.97;99692.50;5116326;28;19923;-70